Time;durP1;ratioP1;P1;durP2;ratioP2;P2;SDS_P1;SDS_P2;PMS_P1;PMS_P2;Temp;Humidity;BMP_temperature;BMP_pressure;BME280_temperature;BME280_humidity;BME280_pressure;Samples;Min_cycle;Max_cycle;Signal;HPM_P1;HPM_P2
2021/07/16 00:00:34;;;;;;;9.90;6.97;;;15.70;71.00;;;;;;5113422;27;20048;-73
2021/07/16 00:03:23;;;;;;;10.88;7.68;;;15.80;71.20;;;;;;5109921;27;20509;-73
2021/07/16 00:06:11;;;;;;;11.15;7.55;;;15.60;70.90;;;;;;5114536;27;20063;-73
2021/07/16 00:08:59;;;;;;;8.27;7.18;;;15.60;71.00;;;;;;5119300;27;20039;-73
2021/07/16 00:11:48;;;;;;;17.27;7.93;;;15.60;71.00;;;;;;5115766;27;20330;-74
2021/07/16 00:14:38;;;;;;;8.82;6.90;;;15.50;70.90;;;;;;5111064;27;20056;-73
2021/07/16 00:17:27;;;;;;;10.30;7.18;;;15.60;71.10;;;;;;5108969;27;20043;-73
2021/07/16 00:20:20;;;;;;;11.82;8.80;;;15.60;71.30;;;;;;5116349;27;20491;-73
2021/07/16 00:23:11;;;;;;;14.27;9.05;;;15.60;71.60;;;;;;5112554;27;20046;-74
2021/07/16 00:25:59;;;;;;;12.45;8.73;;;15.50;71.70;;;;;;5116807;27;20622;-72
2021/07/16 00:28:48;;;;;;;17.67;8.95;;;15.50;71.80;;;;;;5113296;27;20038;-73
2021/07/16 00:31:40;;;;;;;11.40;8.40;;;15.50;71.80;;;;;;5115415;27;20525;-73
2021/07/16 00:34:29;;;;;;;12.75;9.40;;;15.60;72.00;;;;;;5114647;27;20075;-72
2021/07/16 00:37:17;;;;;;;10.35;8.15;;;15.50;72.00;;;;;;5121910;27;20043;-72
2021/07/16 00:40:09;;;;;;;10.98;8.75;;;15.50;72.00;;;;;;5120314;27;20043;-73
2021/07/16 00:42:57;;;;;;;9.57;8.45;;;15.40;71.80;;;;;;5123816;27;20701;-72
2021/07/16 00:45:46;;;;;;;16.05;9.38;;;15.40;71.90;;;;;;5117658;27;20072;-73
2021/07/16 00:48:36;;;;;;;14.63;9.40;;;15.50;72.10;;;;;;5110361;27;20110;-73
2021/07/16 00:51:24;;;;;;;10.23;8.63;;;15.50;72.10;;;;;;5115495;27;20059;-73
2021/07/16 00:54:13;;;;;;;16.35;9.05;;;15.50;72.20;;;;;;5118849;27;20118;-73
2021/07/16 00:57:02;;;;;;;12.10;9.07;;;15.50;72.20;;;;;;5111772;27;20410;-73
2021/07/16 00:59:51;;;;;;;15.07;10.43;;;15.60;72.40;;;;;;5118230;27;20038;-73
2021/07/16 01:02:39;;;;;;;12.60;9.45;;;15.60;72.50;;;;;;5113123;27;20637;-73
2021/07/16 01:05:31;;;;;;;16.75;9.98;;;15.50;72.40;;;;;;5114619;27;20045;-72
2021/07/16 01:08:19;;;;;;;14.98;9.60;;;15.50;72.50;;;;;;5112632;27;20057;-74
2021/07/16 01:11:08;;;;;;;14.48;10.07;;;15.60;72.60;;;;;;5112472;27;20629;-74
2021/07/16 01:13:56;;;;;;;13.10;10.82;;;15.50;72.50;;;;;;5112041;27;20173;-72
2021/07/16 01:16:45;;;;;;;11.77;9.43;;;15.50;72.50;;;;;;5109808;27;20461;-73
2021/07/16 01:19:48;;;;;;;12.07;10.43;;;15.50;72.50;;;;;;5117289;27;20047;-72
2021/07/16 01:22:39;;;;;;;14.65;10.77;;;15.40;72.50;;;;;;5111495;27;20127;-73
2021/07/16 01:25:31;;;;;;;12.70;10.50;;;15.40;72.60;;;;;;5104254;27;20046;-73
2021/07/16 01:28:20;;;;;;;12.75;10.45;;;15.40;72.60;;;;;;5113448;27;20043;-72
2021/07/16 01:31:09;;;;;;;13.05;10.43;;;15.40;72.70;;;;;;5111440;27;20097;-73
2021/07/16 01:33:58;;;;;;;17.08;11.77;;;15.30;72.60;;;;;;5116023;27;20042;-74
2021/07/16 01:36:47;;;;;;;16.90;11.75;;;15.40;72.70;;;;;;5111717;27;20044;-73
2021/07/16 01:39:35;;;;;;;17.88;12.30;;;15.30;72.70;;;;;;5114849;27;20406;-72
2021/07/16 01:42:33;;;;;;;20.25;12.18;;;15.30;72.70;;;;;;5116916;27;20545;-73
2021/07/16 01:45:25;;;;;;;16.58;12.88;;;15.30;72.70;;;;;;5113842;27;20050;-73
2021/07/16 01:48:15;;;;;;;17.33;12.73;;;15.30;72.70;;;;;;5107478;28;20054;-73
2021/07/16 01:51:04;;;;;;;16.02;11.75;;;15.30;72.80;;;;;;5114909;27;20032;-74
2021/07/16 01:53:53;;;;;;;18.27;14.00;;;15.20;72.80;;;;;;5121387;27;20208;-74
2021/07/16 01:56:41;;;;;;;16.55;12.90;;;15.20;72.80;;;;;;5111469;27;20062;-72
2021/07/16 01:59:33;;;;;;;16.83;11.93;;;15.20;72.90;;;;;;5110943;28;20077;-72
2021/07/16 02:02:22;;;;;;;20.15;13.60;;;15.20;72.90;;;;;;5112087;28;20501;-73
2021/07/16 02:05:11;;;;;;;20.27;13.25;;;15.20;73.00;;;;;;5106922;28;20050;-72
2021/07/16 02:08:01;;;;;;;19.85;12.38;;;15.30;73.00;;;;;;5106725;28;20055;-73
2021/07/16 02:10:53;;;;;;;16.33;11.82;;;15.30;73.10;;;;;;5110780;28;20521;-72
2021/07/16 02:13:42;;;;;;;19.08;12.13;;;15.20;73.10;;;;;;5113104;28;20039;-73
2021/07/16 02:16:31;;;;;;;18.88;13.13;;;15.20;73.10;;;;;;5112555;28;20047;-73
2021/07/16 02:19:20;;;;;;;23.30;13.57;;;15.20;73.20;;;;;;5114099;28;20047;-73
2021/07/16 02:22:10;;;;;;;17.55;12.73;;;15.20;73.20;;;;;;5113820;27;20047;-73
2021/07/16 02:24:58;;;;;;;17.00;12.77;;;15.20;73.10;;;;;;5108489;27;20098;-73
2021/07/16 02:27:49;;;;;;;17.13;13.43;;;15.20;73.20;;;;;;5109864;27;20138;-73
2021/07/16 02:30:38;;;;;;;14.75;11.88;;;15.20;73.20;;;;;;5118630;27;20044;-73
2021/07/16 02:33:28;;;;;;;21.02;16.52;;;15.20;73.20;;;;;;5114624;27;20055;-73
2021/07/16 02:36:17;;;;;;;20.70;15.40;;;15.30;73.10;;;;;;5113631;27;20097;-73
2021/07/16 02:39:06;;;;;;;21.60;15.63;;;15.20;73.00;;;;;;5113509;27;20082;-73
2021/07/16 02:41:54;;;;;;;24.77;16.45;;;15.10;72.80;;;;;;5120463;27;20416;-72
2021/07/16 02:44:44;;;;;;;21.05;16.52;;;15.20;73.10;;;;;;5111422;27;20126;-72
2021/07/16 02:47:33;;;;;;;24.42;15.50;;;15.10;73.00;;;;;;5109339;27;20600;-72
2021/07/16 02:50:24;;;;;;;20.08;14.65;;;15.10;73.00;;;;;;5113205;27;20423;-73
2021/07/16 02:53:16;;;;;;;20.25;14.73;;;15.10;73.10;;;;;;5108428;28;20046;-73
2021/07/16 02:56:04;;;;;;;19.02;13.57;;;15.20;73.20;;;;;;5112881;27;20055;-72
2021/07/16 02:58:52;;;;;;;18.13;13.43;;;15.20;73.20;;;;;;5115011;27;20043;-72
2021/07/16 03:01:56;;;;;;;17.98;13.52;;;15.10;73.10;;;;;;5116524;27;20096;-73
2021/07/16 03:04:46;;;;;;;18.27;13.40;;;15.20;73.30;;;;;;5117910;27;20060;-72
2021/07/16 03:07:36;;;;;;;18.80;13.15;;;15.20;73.30;;;;;;5117728;27;20128;-73
2021/07/16 03:10:27;;;;;;;17.77;12.95;;;15.20;73.20;;;;;;5113402;27;20043;-72
2021/07/16 03:13:17;;;;;;;15.50;11.82;;;15.10;72.90;;;;;;5112510;27;20383;-73
2021/07/16 03:16:06;;;;;;;14.90;12.00;;;15.10;73.00;;;;;;5113882;27;20045;-72
2021/07/16 03:18:57;;;;;;;14.93;12.15;;;15.10;73.20;;;;;;5118975;27;20058;-72
2021/07/16 03:21:46;;;;;;;16.33;11.88;;;15.20;73.20;;;;;;5111526;27;20043;-73
2021/07/16 03:24:35;;;;;;;16.27;12.30;;;15.20;73.20;;;;;;5107497;28;20055;-73
2021/07/16 03:27:24;;;;;;;17.33;11.48;;;15.20;73.20;;;;;;5110779;27;20047;-72
2021/07/16 03:30:15;;;;;;;15.55;11.20;;;15.10;72.90;;;;;;5114170;27;20125;-73
2021/07/16 03:33:06;;;;;;;15.15;10.88;;;15.10;73.00;;;;;;5119973;27;20123;-74
2021/07/16 03:35:54;;;;;;;18.50;11.25;;;15.10;73.00;;;;;;5113925;27;20056;-74
2021/07/16 03:38:44;;;;;;;13.98;11.07;;;15.10;72.90;;;;;;5115300;27;20063;-73
2021/07/16 03:41:33;;;;;;;15.85;10.93;;;15.10;73.00;;;;;;5118401;27;20114;-73
2021/07/16 03:44:22;;;;;;;14.68;10.80;;;15.00;73.00;;;;;;5110646;27;20040;-73
2021/07/16 03:47:27;;;;;;;22.23;12.18;;;15.00;73.00;;;;;;5121449;27;20071;-73
2021/07/16 03:50:18;;;;;;;14.15;11.02;;;14.90;73.00;;;;;;5110472;27;20069;-73
2021/07/16 03:53:07;;;;;;;21.60;10.95;;;15.00;73.10;;;;;;5115284;27;20055;-73
2021/07/16 03:55:55;;;;;;;13.23;10.55;;;15.00;73.10;;;;;;5106746;27;20048;-73
2021/07/16 03:58:45;;;;;;;18.08;12.30;;;15.00;73.00;;;;;;5111534;27;20542;-73
2021/07/16 04:01:34;;;;;;;14.85;11.70;;;15.00;73.10;;;;;;5116109;27;20052;-73
2021/07/16 04:04:22;;;;;;;15.98;10.77;;;15.00;73.20;;;;;;5111331;27;20498;-74
2021/07/16 04:07:17;;;;;;;17.30;11.32;;;15.00;73.20;;;;;;5111217;27;20047;-73
2021/07/16 04:10:09;;;;;;;11.93;9.70;;;15.00;73.30;;;;;;5109569;27;20031;-73
2021/07/16 04:12:59;;;;;;;12.52;9.95;;;15.30;72.90;;;;;;5116558;27;20062;-73
2021/07/16 04:15:48;;;;;;;12.00;9.00;;;15.20;72.10;;;;;;5106179;27;20047;-74
2021/07/16 04:18:37;;;;;;;10.52;9.25;;;15.20;70.70;;;;;;5106954;27;20050;-73
2021/07/16 04:21:25;;;;;;;11.15;8.75;;;15.10;70.50;;;;;;5109558;27;20049;-73
2021/07/16 04:24:14;;;;;;;12.57;9.18;;;15.10;70.50;;;;;;5108295;27;20296;-74
2021/07/16 04:27:03;;;;;;;10.52;8.35;;;15.20;70.60;;;;;;5111228;27;20047;-73
2021/07/16 04:29:51;;;;;;;12.63;9.15;;;15.10;70.60;;;;;;5105318;28;20523;-72
2021/07/16 04:32:42;;;;;;;12.18;8.75;;;15.20;70.60;;;;;;5113434;27;20054;-72
2021/07/16 04:35:31;;;;;;;11.98;8.98;;;15.20;70.60;;;;;;5108227;27;20510;-73
2021/07/16 04:38:19;;;;;;;14.25;8.60;;;15.10;70.50;;;;;;5114575;27;20209;-72
2021/07/16 04:41:08;;;;;;;12.07;9.10;;;15.20;70.60;;;;;;5098275;27;20232;-72
2021/07/16 04:43:58;;;;;;;9.43;8.23;;;15.10;70.50;;;;;;5107808;27;20044;-72
2021/07/16 04:46:46;;;;;;;14.30;9.35;;;15.20;70.60;;;;;;5092670;28;20456;-74
2021/07/16 04:49:36;;;;;;;11.35;8.70;;;15.20;70.60;;;;;;5104790;27;20058;-73
2021/07/16 04:52:24;;;;;;;10.00;8.75;;;15.40;70.70;;;;;;5114984;27;20047;-73
2021/07/16 04:55:14;;;;;;;10.48;8.65;;;16.30;63.40;;;;;;5110268;27;20040;-73
2021/07/16 04:58:03;;;;;;;10.52;8.38;;;16.10;63.60;;;;;;5108268;27;20063;-74
2021/07/16 05:00:51;;;;;;;12.15;8.55;;;15.70;64.10;;;;;;5112022;27;20126;-74
2021/07/16 05:03:40;;;;;;;12.98;9.40;;;15.60;65.10;;;;;;5108280;28;20070;-73
2021/07/16 05:06:30;;;;;;;15.75;9.82;;;15.40;66.70;;;;;;5109369;27;20043;-74
2021/07/16 05:09:18;;;;;;;13.43;10.43;;;15.50;67.50;;;;;;5105379;28;20474;-74
2021/07/16 05:12:07;;;;;;;11.02;9.05;;;15.40;67.70;;;;;;5111568;27;20755;-73
2021/07/16 05:14:56;;;;;;;12.82;10.23;;;15.50;67.80;;;;;;5108881;28;20043;-74
2021/07/16 05:17:44;;;;;;;13.27;10.23;;;15.60;67.30;;;;;;5109108;28;20189;-74
2021/07/16 05:20:33;;;;;;;12.20;9.77;;;15.50;67.70;;;;;;5106637;28;20134;-73
2021/07/16 05:23:22;;;;;;;16.13;10.60;;;15.50;67.60;;;;;;5108085;28;20047;-75
2021/07/16 05:26:11;;;;;;;13.15;10.40;;;15.60;68.00;;;;;;5107185;28;20052;-74
2021/07/16 05:29:00;;;;;;;13.65;10.05;;;15.70;67.30;;;;;;5105511;28;20036;-73
2021/07/16 05:31:48;;;;;;;10.32;9.20;;;15.90;66.60;;;;;;5111892;28;20075;-73
2021/07/16 05:34:37;;;;;;;11.95;9.63;;;16.00;65.20;;;;;;5106199;28;20062;-73
2021/07/16 05:37:25;;;;;;;9.85;8.85;;;16.10;65.10;;;;;;5110480;28;20065;-73
2021/07/16 05:40:16;;;;;;;11.80;9.43;;;16.10;62.50;;;;;;5104078;28;20054;-73
2021/07/16 05:43:06;;;;;;;11.40;9.20;;;16.20;64.00;;;;;;5112658;27;20133;-74
2021/07/16 05:45:54;;;;;;;11.80;8.63;;;16.50;60.10;;;;;;5113126;27;20126;-72
2021/07/16 05:48:46;;;;;;;11.00;8.30;;;16.60;58.70;;;;;;5110303;27;20055;-72
2021/07/16 05:51:35;;;;;;;12.15;8.02;;;16.50;58.10;;;;;;5109650;27;20042;-72
2021/07/16 05:54:23;;;;;;;9.13;7.97;;;16.40;59.80;;;;;;5111104;28;20414;-73
2021/07/16 05:57:13;;;;;;;10.90;8.90;;;16.30;58.80;;;;;;5116773;27;20434;-73
2021/07/16 06:00:02;;;;;;;11.40;9.05;;;16.10;61.20;;;;;;5111855;27;20048;-73
2021/07/16 06:02:59;;;;;;;11.38;8.57;;;16.30;63.40;;;;;;5114664;27;20036;-74
2021/07/16 06:05:48;;;;;;;13.40;9.63;;;16.30;61.20;;;;;;5112045;27;20058;-73
2021/07/16 06:08:38;;;;;;;11.05;9.40;;;16.40;60.40;;;;;;5115568;27;20047;-72
2021/07/16 06:11:27;;;;;;;12.98;9.95;;;16.60;59.50;;;;;;5112826;27;20047;-73
2021/07/16 06:14:18;;;;;;;10.45;9.20;;;16.50;59.40;;;;;;5116556;27;20517;-73
2021/07/16 06:17:07;;;;;;;10.63;9.30;;;16.70;58.40;;;;;;5117260;27;20074;-74
2021/07/16 06:19:56;;;;;;;13.15;9.30;;;16.90;57.10;;;;;;5110803;27;20575;-73
2021/07/16 06:22:45;;;;;;;13.32;9.95;;;16.90;57.90;;;;;;5117384;27;20165;-73
2021/07/16 06:25:33;;;;;;;12.75;9.68;;;16.70;55.60;;;;;;5108426;27;20124;-72
2021/07/16 06:28:22;;;;;;;12.02;10.60;;;16.50;59.50;;;;;;5110546;27;20052;-73
2021/07/16 06:31:11;;;;;;;13.15;9.98;;;16.60;59.10;;;;;;5116394;27;20044;-72
2021/07/16 06:34:00;;;;;;;10.30;9.23;;;16.80;55.50;;;;;;5113082;27;20123;-73
2021/07/16 06:36:49;;;;;;;12.35;10.25;;;16.70;55.50;;;;;;5112765;27;20051;-73
2021/07/16 06:39:37;;;;;;;11.80;9.70;;;16.70;56.40;;;;;;5108757;27;20055;-73
2021/07/16 06:42:25;;;;;;;11.77;9.68;;;16.70;53.30;;;;;;5114177;27;20039;-73
2021/07/16 06:45:14;;;;;;;10.25;9.07;;;17.00;55.40;;;;;;5113744;27;20088;-73
2021/07/16 06:48:04;;;;;;;11.20;8.13;;;17.50;46.00;;;;;;5111468;27;20043;-74
2021/07/16 06:50:53;;;;;;;9.38;8.48;;;18.20;42.00;;;;;;5122327;27;20635;-72
2021/07/16 06:53:41;;;;;;;9.82;8.15;;;18.00;40.10;;;;;;5110202;27;20410;-73
2021/07/16 06:56:31;;;;;;;9.23;8.32;;;18.00;39.60;;;;;;5108584;27;20161;-73
2021/07/16 06:59:19;;;;;;;9.82;8.82;;;17.80;40.70;;;;;;5109865;27;20176;-74
2021/07/16 07:02:08;;;;;;;9.73;8.73;;;17.90;40.10;;;;;;5116079;27;20043;-73
2021/07/16 07:04:58;;;;;;;10.80;8.93;;;17.30;45.80;;;;;;5112710;27;20046;-73
2021/07/16 07:07:47;;;;;;;13.85;10.38;;;17.40;49.60;;;;;;5116526;27;20040;-73
2021/07/16 07:10:35;;;;;;;16.60;11.00;;;17.00;52.40;;;;;;5111269;27;20149;-73
2021/07/16 07:13:24;;;;;;;14.85;12.10;;;17.00;53.50;;;;;;5110260;27;20161;-73
2021/07/16 07:16:15;;;;;;;15.07;11.40;;;17.30;52.60;;;;;;5108047;27;20047;-73
2021/07/16 07:19:04;;;;;;;15.27;10.93;;;17.70;52.40;;;;;;5105767;27;20044;-73
2021/07/16 07:21:53;;;;;;;13.02;11.23;;;17.70;43.90;;;;;;5113214;27;20405;-73
2021/07/16 07:24:42;;;;;;;12.40;10.88;;;17.70;48.20;;;;;;5119297;27;20048;-72
2021/07/16 07:27:30;;;;;;;13.60;10.98;;;17.50;45.70;;;;;;5117126;27;20126;-72
2021/07/16 07:30:20;;;;;;;11.35;10.15;;;17.40;50.30;;;;;;5108718;27;20054;-73
2021/07/16 07:33:08;;;;;;;12.75;11.32;;;17.40;50.70;;;;;;5112254;27;20118;-73
2021/07/16 07:35:57;;;;;;;12.70;11.32;;;17.30;48.80;;;;;;5115839;27;20047;-72
2021/07/16 07:38:48;;;;;;;13.38;11.75;;;17.20;49.20;;;;;;5116577;27;20382;-73
2021/07/16 07:41:36;;;;;;;13.70;12.30;;;17.30;48.90;;;;;;5124994;27;20149;-72
2021/07/16 07:44:24;;;;;;;13.15;11.75;;;17.50;47.80;;;;;;5109405;27;20127;-73
2021/07/16 07:47:13;;;;;;;14.13;12.02;;;17.70;42.90;;;;;;5114734;27;20058;-72
2021/07/16 07:50:02;;;;;;;13.02;11.23;;;17.70;43.90;;;;;;5111839;27;20090;-73
2021/07/16 07:52:52;;;;;;;11.55;10.35;;;18.00;43.40;;;;;;5123114;27;20037;-73
2021/07/16 07:55:42;;;;;;;13.90;12.50;;;18.00;38.60;;;;;;5114463;27;20103;-74
2021/07/16 07:58:30;;;;;;;15.93;13.70;;;17.70;43.90;;;;;;5112875;27;20130;-73
2021/07/16 08:01:19;;;;;;;14.95;12.60;;;17.50;43.60;;;;;;5111902;27;20047;-72
2021/07/16 08:04:08;;;;;;;12.63;11.05;;;17.50;43.70;;;;;;5116881;27;20031;-73
2021/07/16 08:06:58;;;;;;;16.75;12.68;;;18.00;41.30;;;;;;5120219;27;20050;-72
2021/07/16 08:09:47;;;;;;;16.15;13.13;;;18.00;41.10;;;;;;5112621;27;20078;-73
2021/07/16 08:12:37;;;;;;;15.07;13.48;;;17.90;44.10;;;;;;5117961;27;20057;-73
2021/07/16 08:15:26;;;;;;;16.00;13.98;;;18.20;38.70;;;;;;5111539;27;20065;-72
2021/07/16 08:18:14;;;;;;;13.75;12.35;;;18.20;35.80;;;;;;5115877;27;20145;-73
2021/07/16 08:21:03;;;;;;;18.25;13.00;;;18.30;38.10;;;;;;5117882;27;20065;-74
2021/07/16 08:23:52;;;;;;;14.50;11.30;;;18.20;40.00;;;;;;5117232;27;20114;-73
2021/07/16 08:26:40;;;;;;;15.35;11.48;;;18.00;37.60;;;;;;5114716;27;20174;-72
2021/07/16 08:29:30;;;;;;;12.38;10.55;;;18.40;39.70;;;;;;5116416;27;20047;-72
2021/07/16 08:32:18;;;;;;;12.75;10.20;;;18.70;32.30;;;;;;5114668;27;20063;-72
2021/07/16 08:35:08;;;;;;;11.18;10.00;;;18.50;30.50;;;;;;5107219;27;20074;-73
2021/07/16 08:37:56;;;;;;;10.82;9.73;;;18.80;28.10;;;;;;5108770;27;20048;-71
2021/07/16 08:40:45;;;;;;;9.40;7.88;;;19.20;24.80;;;;;;5109785;27;20051;-72
2021/07/16 08:43:36;;;;;;;9.05;7.97;;;19.60;21.80;;;;;;5108188;28;20391;-73
2021/07/16 08:46:25;;;;;;;8.50;7.70;;;19.20;22.20;;;;;;5105271;27;20651;-73
2021/07/16 08:49:18;;;;;;;8.90;7.25;;;19.90;18.40;;;;;;5106170;27;20039;-73
2021/07/16 08:52:08;;;;;;;8.43;7.63;;;19.60;17.00;;;;;;5110578;27;20047;-74
2021/07/16 08:54:56;;;;;;;9.85;7.80;;;19.10;21.40;;;;;;5105004;27;20238;-73
2021/07/16 08:57:44;;;;;;;7.97;6.47;;;19.20;22.40;;;;;;5122704;27;20051;-72
2021/07/16 09:00:33;;;;;;;7.90;6.93;;;19.90;18.20;;;;;;5116161;27;20069;-73
2021/07/16 09:03:29;;;;;;;7.65;6.85;;;20.10;15.80;;;;;;5110811;27;20075;-73
2021/07/16 09:06:41;;;;;;;5.75;5.15;;;20.20;16.00;;;;;;5107991;27;20035;-73
2021/07/16 09:09:35;;;;;;;5.07;4.57;;;20.40;14.80;;;;;;5107977;27;20056;-72
2021/07/16 09:12:23;;;;;;;5.28;4.68;;;19.90;12.40;;;;;;5122423;27;20172;-72
2021/07/16 09:15:13;;;;;;;6.70;5.05;;;19.70;11.40;;;;;;5106870;27;20126;-72
2021/07/16 09:18:21;;;;;;;4.55;4.15;;;19.40;14.60;;;;;;5094777;27;20524;-73
2021/07/16 09:21:11;;;;;;;4.70;3.80;;;20.50;11.30;;;;;;5109837;27;20127;-72
2021/07/16 09:24:05;;;;;;;4.80;4.40;;;20.90;8.80;;;;;;5114291;27;20046;-73
2021/07/16 09:26:53;;;;;;;6.13;4.50;;;20.50;8.80;;;;;;5116317;27;20429;-72
2021/07/16 09:29:42;;;;;;;6.38;4.40;;;20.60;9.20;;;;;;5113076;27;20491;-73
2021/07/16 09:32:32;;;;;;;7.57;4.18;;;20.60;8.90;;;;;;5114969;27;20055;-72
2021/07/16 09:35:25;;;;;;;4.05;3.53;;;20.50;11.30;;;;;;5115248;27;20066;-74
2021/07/16 09:38:17;;;;;;;3.90;3.55;;;21.00;6.40;;;;;;5123703;27;20043;-73
2021/07/16 09:41:08;;;;;;;3.85;3.45;;;20.60;7.30;;;;;;5121496;27;20179;-75
2021/07/16 09:44:01;;;;;;;3.90;3.60;;;20.70;5.80;;;;;;5115221;27;20044;-73
2021/07/16 09:47:05;;;;;;;4.30;3.90;;;20.60;6.60;;;;;;5111040;27;20035;-72
2021/07/16 09:50:07;;;;;;;4.40;4.00;;;21.30;6.60;;;;;;5111910;27;20039;-74
2021/07/16 09:53:19;;;;;;;4.00;3.60;;;21.70;6.60;;;;;;5115973;27;20046;-74
2021/07/16 09:56:15;;;;;;;4.13;3.65;;;22.20;3.60;;;;;;5117227;27;20485;-74
2021/07/16 09:59:05;;;;;;;3.15;2.95;;;21.20;4.10;;;;;;5111137;27;20051;-73
2021/07/16 10:01:54;;;;;;;3.58;2.80;;;21.90;3.70;;;;;;5122616;27;20155;-74
2021/07/16 10:04:44;;;;;;;6.15;2.80;;;21.90;4.00;;;;;;5114959;27;20046;-72
2021/07/16 10:07:33;;;;;;;2.03;1.83;;;22.30;2.00;;;;;;5121707;27;20055;-74
2021/07/16 10:10:24;;;;;;;2.78;2.50;;;22.10;1.00;;;;;;5119766;27;20184;-73
2021/07/16 10:13:13;;;;;;;3.53;2.70;;;21.70;2.50;;;;;;5122039;27;20150;-74
2021/07/16 10:16:03;;;;;;;6.82;2.97;;;21.80;2.90;;;;;;5111752;27;20055;-75
2021/07/16 10:18:53;;;;;;;3.78;2.63;;;21.90;2.30;;;;;;5111329;27;20047;-73
2021/07/16 10:21:41;;;;;;;3.72;3.33;;;21.70;2.60;;;;;;5119842;27;20054;-73
2021/07/16 10:24:34;;;;;;;3.30;3.00;;;21.90;2.70;;;;;;5118659;27;20047;-71
2021/07/16 10:27:43;;;;;;;2.65;2.42;;;21.50;4.30;;;;;;5120061;27;20058;-72
2021/07/16 10:30:38;;;;;;;2.40;2.20;;;21.60;1.00;;;;;;5108896;27;20434;-73
2021/07/16 10:33:38;;;;;;;2.17;1.98;;;21.20;1.80;;;;;;5115779;27;20040;-73
2021/07/16 10:36:39;;;;;;;2.60;2.20;;;21.50;1.00;;;;;;5116734;27;20053;-73
2021/07/16 10:39:43;;;;;;;3.60;2.08;;;21.60;2.30;;;;;;5120462;27;20118;-73
2021/07/16 10:42:48;;;;;;;2.47;2.28;;;21.40;1.00;;;;;;5116667;27;20115;-73
2021/07/16 10:45:38;;;;;;;2.92;2.67;;;21.40;1.30;;;;;;5111623;27;20487;-73
2021/07/16 10:48:31;;;;;;;2.80;2.58;;;21.50;2.60;;;;;;5108936;27;20051;-72
2021/07/16 10:51:24;;;;;;;2.80;2.50;;;21.40;2.60;;;;;;5113858;27;20545;-72
2021/07/16 10:54:17;;;;;;;2.45;2.25;;;21.90;3.10;;;;;;5116853;27;20039;-72
2021/07/16 10:57:13;;;;;;;4.25;2.00;;;21.90;2.90;;;;;;5108876;27;20447;-74
2021/07/16 11:00:04;;;;;;;2.78;2.38;;;21.80;1.30;;;;;;5110912;27;20199;-73
2021/07/16 11:02:53;;;;;;;3.03;2.10;;;21.70;2.30;;;;;;5119984;27;20048;-74
2021/07/16 11:05:52;;;;;;;2.58;2.20;;;22.10;1.40;;;;;;5117854;27;20168;-74
2021/07/16 11:08:53;;;;;;;2.13;1.60;;;22.20;1.00;;;;;;5102653;27;20473;-74
2021/07/16 11:11:41;;;;;;;1.70;1.60;;;21.90;1.00;;;;;;5111136;27;20092;-75
2021/07/16 11:14:23;;;;;;;2.53;1.60;;;21.80;1.00;;;;;;5152775;27;20853;-77
2021/07/16 11:17:24;;;;;;;1.80;1.60;;;21.70;1.00;;;;;;5114418;27;20131;-72
2021/07/16 11:20:19;;;;;;;1.90;1.50;;;21.10;1.00;;;;;;5109592;27;20043;-72
2021/07/16 11:23:07;;;;;;;;;;;21.60;1.00;;;;;;5103043;27;20048;-72
2021/07/16 11:25:56;;;;;;;1.48;1.38;;;22.00;1.00;;;;;;5111246;28;20065;-73
2021/07/16 11:29:07;;;;;;;1.92;1.60;;;22.40;1.00;;;;;;5109207;28;20055;-73
2021/07/16 11:32:09;;;;;;;2.35;1.98;;;22.70;1.00;;;;;;5113085;27;20047;-73
2021/07/16 11:35:00;;;;;;;2.83;2.40;;;22.90;1.00;;;;;;5097763;27;20054;-73
2021/07/16 11:37:49;;;;;;;2.78;1.95;;;22.90;1.00;;;;;;5114470;27;20044;-74
2021/07/16 11:40:38;;;;;;;2.15;1.95;;;23.00;1.00;;;;;;5113598;28;20047;-72
2021/07/16 11:43:26;;;;;;;2.80;2.00;;;23.00;1.00;;;;;;5114964;27;20047;-73
2021/07/16 11:46:26;;;;;;;2.00;1.80;;;23.20;1.00;;;;;;5110108;27;20794;-71
2021/07/16 11:49:28;;;;;;;1.65;1.55;;;23.20;1.00;;;;;;5110318;27;20060;-75
2021/07/16 11:52:18;;;;;;;2.13;1.80;;;23.20;1.00;;;;;;5115795;27;20565;-72
2021/07/16 11:55:10;;;;;;;2.45;1.75;;;22.70;1.00;;;;;;5111341;28;20505;-71
2021/07/16 11:58:05;;;;;;;2.10;1.60;;;22.60;1.00;;;;;;5110860;27;20043;-72
2021/07/16 12:01:00;;;;;;;3.25;1.90;;;22.60;1.00;;;;;;5114612;27;20054;-75
2021/07/16 12:03:48;;;;;;;2.38;1.90;;;22.60;1.00;;;;;;5113948;27;20043;-73
2021/07/16 12:06:38;;;;;;;2.17;1.98;;;22.70;1.00;;;;;;5112818;27;20126;-72
2021/07/16 12:09:31;;;;;;;1.95;1.75;;;22.80;1.00;;;;;;5108668;27;20204;-73
2021/07/16 12:12:23;;;;;;;1.60;1.50;;;22.80;1.00;;;;;;5112663;27;20048;-72
2021/07/16 12:15:17;;;;;;;1.70;1.60;;;22.80;1.00;;;;;;5110882;27;20425;-73
2021/07/16 12:18:08;;;;;;;1.90;1.80;;;22.90;1.00;;;;;;5113585;28;20043;-74
2021/07/16 12:20:57;;;;;;;2.08;1.50;;;22.90;1.00;;;;;;5096507;27;20047;-72
2021/07/16 12:23:50;;;;;;;3.72;1.77;;;23.00;1.00;;;;;;5111420;28;20418;-73
2021/07/16 12:26:39;;;;;;;1.63;1.52;;;23.30;1.00;;;;;;5097036;28;20571;-73
2021/07/16 12:29:29;;;;;;;2.33;1.92;;;24.20;1.00;;;;;;5071711;28;20896;-71
2021/07/16 12:32:18;;;;;;;1.95;1.75;;;23.90;1.00;;;;;;5092896;28;20055;-74
2021/07/16 12:35:21;;;;;;;1.85;1.75;;;23.90;1.00;;;;;;5097010;28;20040;-73
2021/07/16 12:38:13;;;;;;;2.65;1.80;;;23.90;1.00;;;;;;5100397;28;20153;-73
2021/07/16 12:41:08;;;;;;;1.90;1.80;;;24.10;1.00;;;;;;5099373;28;20075;-73
2021/07/16 12:43:57;;;;;;;3.50;1.80;;;24.20;1.00;;;;;;5096529;27;20123;-74
2021/07/16 12:46:45;;;;;;;4.38;1.42;;;24.40;1.00;;;;;;5097073;27;20630;-73
2021/07/16 12:49:34;;;;;;;1.95;1.50;;;24.20;1.00;;;;;;5092444;28;20056;-74
2021/07/16 12:52:24;;;;;;;2.67;1.60;;;24.10;1.00;;;;;;5098880;28;20079;-77
2021/07/16 12:55:14;;;;;;;1.70;1.45;;;24.00;1.00;;;;;;5097506;28;20126;-74
2021/07/16 12:58:05;;;;;;;1.60;1.35;;;24.00;1.00;;;;;;5096230;27;20048;-75
2021/07/16 13:00:57;;;;;;;2.05;1.35;;;23.80;1.00;;;;;;5084114;28;20525;-76
2021/07/16 13:03:47;;;;;;;1.25;1.15;;;23.90;1.00;;;;;;5095955;28;20089;-76
2021/07/16 13:06:36;;;;;;;2.38;1.17;;;24.50;1.00;;;;;;5099665;28;20381;-73
2021/07/16 13:09:26;;;;;;;1.65;1.30;;;24.00;1.00;;;;;;5093771;28;20490;-75
2021/07/16 13:12:17;;;;;;;2.72;1.40;;;24.30;1.00;;;;;;5098295;28;20846;-74
2021/07/16 13:15:13;;;;;;;1.38;1.20;;;24.10;1.00;;;;;;5093642;28;20415;-73
2021/07/16 13:18:11;;;;;;;2.30;1.23;;;24.30;1.00;;;;;;5093970;27;20465;-73
2021/07/16 13:20:59;;;;;;;1.35;1.10;;;23.60;1.00;;;;;;5069683;28;20511;-73
2021/07/16 13:23:49;;;;;;;2.35;1.40;;;23.40;1.00;;;;;;5098585;28;20130;-73
2021/07/16 13:26:37;;;;;;;1.90;1.27;;;24.00;1.00;;;;;;5094720;28;20150;-74
2021/07/16 13:29:27;;;;;;;2.63;1.55;;;24.10;1.00;;;;;;5082389;28;20058;-76
2021/07/16 13:32:17;;;;;;;2.15;1.30;;;23.60;1.00;;;;;;5100035;27;20212;-74
2021/07/16 13:35:07;;;;;;;1.73;1.52;;;24.40;1.00;;;;;;5091280;28;20104;-74
2021/07/16 13:37:55;;;;;;;2.40;1.35;;;24.60;1.00;;;;;;5098253;28;20059;-75
2021/07/16 13:40:45;;;;;;;3.20;1.77;;;24.20;1.00;;;;;;5097257;28;20055;-74
2021/07/16 13:43:33;;;;;;;1.40;1.30;;;24.10;1.00;;;;;;5099370;27;20046;-75
2021/07/16 13:46:25;;;;;;;3.47;1.50;;;23.70;1.00;;;;;;5097154;28;20055;-76
2021/07/16 13:49:15;;;;;;;2.13;1.60;;;23.70;1.00;;;;;;5093738;28;20051;-77
2021/07/16 13:52:04;;;;;;;1.98;1.75;;;23.50;1.00;;;;;;5097036;27;20142;-76
2021/07/16 13:54:52;;;;;;;5.07;1.52;;;23.70;1.00;;;;;;5094268;27;20434;-76
2021/07/16 13:57:41;;;;;;;1.63;1.40;;;24.10;1.00;;;;;;5098058;27;20148;-75
2021/07/16 14:00:30;;;;;;;2.35;1.30;;;23.80;1.00;;;;;;5096002;28;20613;-76
2021/07/16 14:03:18;;;;;;;2.17;1.30;;;24.20;1.00;;;;;;5095534;28;20059;-77
2021/07/16 14:06:08;;;;;;;1.73;1.30;;;24.20;1.00;;;;;;5092882;27;20058;-76
2021/07/16 14:08:57;;;;;;;3.22;1.30;;;24.10;1.00;;;;;;5094258;28;20130;-75
2021/07/16 14:11:45;;;;;;;2.03;1.30;;;24.30;1.00;;;;;;5098485;27;20054;-76
2021/07/16 14:14:34;;;;;;;3.22;1.42;;;24.70;1.00;;;;;;5096421;28;20044;-76
2021/07/16 14:17:22;;;;;;;2.65;1.33;;;24.60;1.00;;;;;;5095131;27;20048;-76
2021/07/16 14:20:11;;;;;;;1.40;1.30;;;24.30;1.00;;;;;;5077865;28;20055;-76
2021/07/16 14:23:01;;;;;;;1.35;1.08;;;24.50;1.00;;;;;;5098807;28;20519;-76
2021/07/16 14:25:51;;;;;;;1.92;1.17;;;24.20;1.00;;;;;;5097264;28;20051;-76
2021/07/16 14:28:39;;;;;;;1.35;1.15;;;24.00;1.00;;;;;;5078252;28;20434;-76
2021/07/16 14:31:28;;;;;;;1.90;1.20;;;24.20;1.00;;;;;;5097963;27;20126;-75
2021/07/16 14:34:16;;;;;;;2.67;1.30;;;24.30;1.00;;;;;;5099567;28;20101;-75
2021/07/16 14:37:05;;;;;;;2.85;1.63;;;24.40;1.00;;;;;;5087167;28;20134;-75
2021/07/16 14:39:55;;;;;;;2.03;1.10;;;25.00;1.00;;;;;;5100320;28;20543;-74